This is the latest recevied weather packets stored in our database for station/object ED1ZAI-13. If no packets are shown the sender has not sent any weather packets the latest 10 day(s).
| Time | Temp. | Humidity | Pressure | Rain* | Wind** | Luminosity | Snow |
|---|---|---|---|---|---|---|---|
| 1778067685 | 14.44° C | 38% | 1011.1 hPa | 0 mm | - | - | - |
| 1778067084 | 12.78° C | 43% | 1011.2 hPa | 0 mm | - | - | - |
| 1778066484 | 14.44° C | 39% | 1011.3 hPa | 0 mm | - | - | - |
| 1778065884 | 13.89° C | 40% | 1011.2 hPa | 0 mm | - | - | - |
| 1778065285 | 12.22° C | 44% | 1011.3 hPa | 0 mm | - | - | - |
| 1778064685 | 12.22° C | 42% | 1011.4 hPa | 0 mm | - | - | - |
| 1778064085 | 14.44° C | 39% | 1011.4 hPa | 0 mm | - | - | - |
| 1778063485 | 12.22° C | 44% | 1011.5 hPa | 0 mm | - | - | - |
| 1778062884 | 15.56° C | 39% | 1011.5 hPa | 0 mm | - | - | - |
| 1778062284 | 13.33° C | 43% | 1011.6 hPa | 0 mm | - | - | - |
| 1778061686 | 12.22° C | 48% | 1011.7 hPa | 0 mm | - | - | - |
| 1778061085 | 13.33° C | 42% | 1011.6 hPa | 0 mm | - | - | - |
| 1778060485 | 13.33° C | 43% | 1011.5 hPa | 0 mm | - | - | - |
| 1778059885 | 12.78° C | 44% | 1011.6 hPa | 0 mm | - | - | - |
| 1778059285 | 12.78° C | 42% | 1011.4 hPa | 0 mm | - | - | - |
| 1778058684 | 15° C | 41% | 1011.4 hPa | 0 mm | - | - | - |
| 1778058084 | 13.33° C | 43% | 1011.5 hPa | 0 mm | - | - | - |
| 1778057484 | 14.44° C | 42% | 1011.4 hPa | 0 mm | - | - | - |
| 1778056883 | 14.44° C | 38% | 1011.3 hPa | 0 mm | - | - | - |
| 1778056141 | 13.33° C | 41% | 1011.4 hPa | 0 mm | - | - | - |
| 1778055541 | 12.78° C | 49% | 1011.4 hPa | 0 mm | - | - | - |
| 1778054941 | 12.78° C | 47% | 1011.4 hPa | 0 mm | - | - | - |
| 1778054340 | 13.33° C | 56% | 1011.5 hPa | 0 mm | - | - | - |
| 1778053740 | 10.56° C | 63% | 1011.5 hPa | 0 mm | - | - | - |
| 1778053142 | 8.33° C | 65% | 1011.6 hPa | 0 mm | - | - | - |
* Rain latest hour (hover to see other rain measurements)
** Current wind speed in m/s (hover to see current wind gust speed)